TUI2EM LGRP-EDDV
Flight info
| Callsign | TUI2EM |
|---|---|
| Flight time | 3h 7m |
| Altitude | 36000 |
| Route | VANES M601 ADESO/N0456F340 UN133 RIGRO DCT ESOPO/N0454F360 DCT FSK UN128 RUGAS DCT RAXAD DCT RAMAP DCT SOMUN DCT SIVLA DCT NIDLO DCT NURMI DCT LAMSI DCT LASGA M726 LASTO/N0432F300 M852 BIRKA/N0395F240 T803 GITEX GITEX1Z |
| Aircraft | B738/M-SDE2E3FGHIRWXY/LB1 |
Departure
| Time | 2026-05-07 14:19 |
|---|---|
| Airport | Rhodes International Airport "Diagoras" (LGRP) |
Arrival
| Time | 2026-05-07 17:26 |
|---|---|
| Airport | Hannover Airport (EDDV) |
| Time | Latitude | Longitude | Altitude | Speed | Heading |
|---|---|---|---|---|---|
| 2026-05-07 13:55 | 36.40338 | 28.09025 | 28 ft | 0 kts | 160° |
| 2026-05-07 13:59 | 36.40338 | 28.09024 | 28 ft | 0 kts | 160° |
| 2026-05-07 14:10 | 36.40346 | 28.09021 | 28 ft | 4 kts | 160° |
| 2026-05-07 14:11 | 36.40370 | 28.09010 | 28 ft | 2 kts | 160° |
| 2026-05-07 14:11 | 36.40384 | 28.09003 | 28 ft | 4 kts | 141° |
| 2026-05-07 14:11 | 36.40396 | 28.08978 | 28 ft | 4 kts | 89° |
| 2026-05-07 14:11 | 36.40394 | 28.08961 | 28 ft | 0 kts | 79° |
| 2026-05-07 14:13 | 36.40395 | 28.08961 | 28 ft | 1 kts | 79° |
| 2026-05-07 14:13 | 36.40399 | 28.08989 | 28 ft | 7 kts | 78° |
| 2026-05-07 14:14 | 36.40423 | 28.09083 | 28 ft | 15 kts | 70° |
| 2026-05-07 14:14 | 36.40466 | 28.09229 | 28 ft | 20 kts | 70° |
| 2026-05-07 14:14 | 36.40515 | 28.09352 | 28 ft | 15 kts | 45° |
| 2026-05-07 14:14 | 36.40592 | 28.09440 | 28 ft | 15 kts | 65° |
| 2026-05-07 14:15 | 36.40631 | 28.09563 | 27 ft | 15 kts | 70° |
| 2026-05-07 14:15 | 36.40667 | 28.09687 | 25 ft | 16 kts | 71° |
| 2026-05-07 14:15 | 36.40707 | 28.09827 | 21 ft | 19 kts | 70° |
| 2026-05-07 14:15 | 36.40752 | 28.09982 | 21 ft | 19 kts | 70° |
| 2026-05-07 14:16 | 36.40798 | 28.10132 | 18 ft | 18 kts | 69° |
| 2026-05-07 14:16 | 36.40840 | 28.10278 | 20 ft | 18 kts | 70° |
| 2026-05-07 14:16 | 36.40874 | 28.10392 | 25 ft | 11 kts | 65° |
| 2026-05-07 14:16 | 36.40936 | 28.10425 | 24 ft | 11 kts | 343° |
| 2026-05-07 14:17 | 36.40994 | 28.10367 | 21 ft | 11 kts | 301° |
| 2026-05-07 14:17 | 36.41019 | 28.10302 | 23 ft | 7 kts | 282° |
| 2026-05-07 14:17 | 36.41014 | 28.10258 | 23 ft | 0 kts | 253° |
| 2026-05-07 14:18 | 36.40958 | 28.10063 | 21 ft | 65 kts | 249° |
| 2026-05-07 14:18 | 36.40708 | 28.09215 | 29 ft | 141 kts | 250° |
| 2026-05-07 14:19 | 36.40314 | 28.07823 | 195 ft | 194 kts | 251° |
| 2026-05-07 14:19 | 36.39832 | 28.06136 | 672 ft | 222 kts | 253° |
| 2026-05-07 14:19 | 36.39587 | 28.04104 | 982 ft | 256 kts | 266° |
| 2026-05-07 14:19 | 36.39460 | 28.01822 | 1578 ft | 270 kts | 266° |
| 2026-05-07 14:20 | 36.39321 | 27.99499 | 2574 ft | 261 kts | 265° |
| 2026-05-07 14:20 | 36.39184 | 27.97387 | 3916 ft | 235 kts | 266° |
| 2026-05-07 14:20 | 36.39334 | 27.95364 | 4469 ft | 243 kts | 295° |
| 2026-05-07 14:20 | 36.40277 | 27.93592 | 4991 ft | 250 kts | 309° |
| 2026-05-07 14:21 | 36.41347 | 27.91884 | 5678 ft | 251 kts | 310° |
| 2026-05-07 14:21 | 36.42431 | 27.90154 | 6311 ft | 259 kts | 310° |
| 2026-05-07 14:21 | 36.43544 | 27.88362 | 6757 ft | 276 kts | 310° |
| 2026-05-07 14:21 | 36.44751 | 27.86393 | 7572 ft | 279 kts | 309° |
| 2026-05-07 14:22 | 36.45918 | 27.84467 | 8467 ft | 279 kts | 309° |
| 2026-05-07 14:22 | 36.47065 | 27.82559 | 9349 ft | 280 kts | 308° |
| 2026-05-07 14:22 | 36.48229 | 27.80612 | 10188 ft | 282 kts | 308° |
| 2026-05-07 14:22 | 36.49421 | 27.78610 | 10661 ft | 298 kts | 308° |
| 2026-05-07 14:23 | 36.50703 | 27.76453 | 10833 ft | 322 kts | 308° |
| 2026-05-07 14:23 | 36.52080 | 27.74128 | 11060 ft | 343 kts | 308° |
| 2026-05-07 14:23 | 36.53509 | 27.71707 | 11623 ft | 350 kts | 307° |
| 2026-05-07 14:23 | 36.54952 | 27.69255 | 12385 ft | 352 kts | 307° |
| 2026-05-07 14:24 | 36.56401 | 27.66788 | 13176 ft | 353 kts | 307° |
| 2026-05-07 14:24 | 36.57853 | 27.64313 | 13922 ft | 356 kts | 307° |
| 2026-05-07 14:24 | 36.59317 | 27.61818 | 14563 ft | 358 kts | 307° |
| 2026-05-07 14:24 | 36.60790 | 27.59305 | 15218 ft | 360 kts | 307° |
| 2026-05-07 14:25 | 36.62270 | 27.56777 | 15888 ft | 362 kts | 306° |
| 2026-05-07 14:25 | 36.63739 | 27.54267 | 16542 ft | 365 kts | 306° |
| 2026-05-07 14:25 | 36.65240 | 27.51700 | 17173 ft | 367 kts | 306° |
| 2026-05-07 14:25 | 36.66752 | 27.49113 | 17799 ft | 370 kts | 306° |
| 2026-05-07 14:26 | 36.68270 | 27.46514 | 18435 ft | 372 kts | 306° |
| 2026-05-07 14:26 | 36.69799 | 27.43894 | 18966 ft | 376 kts | 306° |
| 2026-05-07 14:26 | 36.71342 | 27.41248 | 19479 ft | 379 kts | 306° |
| 2026-05-07 14:26 | 36.72898 | 27.38578 | 20005 ft | 382 kts | 306° |
| 2026-05-07 14:27 | 36.74464 | 27.35888 | 20527 ft | 385 kts | 306° |
| 2026-05-07 14:27 | 36.76042 | 27.33176 | 21040 ft | 388 kts | 305° |
| 2026-05-07 14:27 | 36.77630 | 27.30443 | 21530 ft | 391 kts | 305° |
| 2026-05-07 14:27 | 36.79231 | 27.27687 | 22011 ft | 394 kts | 305° |
| 2026-05-07 14:28 | 36.80825 | 27.24940 | 22480 ft | 397 kts | 305° |
| 2026-05-07 14:28 | 36.82452 | 27.22134 | 22951 ft | 400 kts | 305° |
| 2026-05-07 14:28 | 36.84091 | 27.19305 | 23386 ft | 403 kts | 305° |
| 2026-05-07 14:28 | 36.85739 | 27.16459 | 23828 ft | 406 kts | 305° |
| 2026-05-07 14:29 | 36.87401 | 27.13586 | 24220 ft | 408 kts | 305° |
| 2026-05-07 14:29 | 36.89061 | 27.10713 | 24632 ft | 409 kts | 305° |
| 2026-05-07 14:29 | 36.90733 | 27.07817 | 25046 ft | 411 kts | 305° |
| 2026-05-07 14:29 | 36.92408 | 27.04915 | 25444 ft | 413 kts | 305° |
| 2026-05-07 14:30 | 36.94089 | 27.01998 | 25823 ft | 414 kts | 305° |
| 2026-05-07 14:30 | 36.95777 | 26.99067 | 26206 ft | 416 kts | 305° |
| 2026-05-07 14:30 | 36.97472 | 26.96121 | 26566 ft | 418 kts | 305° |
| 2026-05-07 14:30 | 36.99175 | 26.93160 | 26933 ft | 420 kts | 305° |
| 2026-05-07 14:31 | 37.00882 | 26.90189 | 27299 ft | 422 kts | 305° |
| 2026-05-07 14:31 | 37.02597 | 26.87200 | 27653 ft | 424 kts | 305° |
| 2026-05-07 14:31 | 37.04288 | 26.84252 | 28192 ft | 420 kts | 305° |
| 2026-05-07 14:31 | 37.05983 | 26.81293 | 28712 ft | 418 kts | 305° |
| 2026-05-07 14:32 | 37.07683 | 26.78324 | 28954 ft | 421 kts | 305° |
| 2026-05-07 14:32 | 37.09396 | 26.75328 | 29206 ft | 425 kts | 305° |
| 2026-05-07 14:32 | 37.11132 | 26.72289 | 29239 ft | 433 kts | 305° |
| 2026-05-07 14:32 | 37.12890 | 26.69208 | 29487 ft | 435 kts | 305° |
| 2026-05-07 14:33 | 37.14647 | 26.66129 | 29948 ft | 433 kts | 305° |
| 2026-05-07 14:33 | 37.16389 | 26.63071 | 30448 ft | 429 kts | 305° |
| 2026-05-07 14:33 | 37.18115 | 26.60040 | 30927 ft | 425 kts | 305° |
| 2026-05-07 14:33 | 37.19827 | 26.57031 | 31336 ft | 423 kts | 305° |
| 2026-05-07 14:34 | 37.21529 | 26.54037 | 31765 ft | 419 kts | 304° |
| 2026-05-07 14:34 | 37.23208 | 26.51079 | 32305 ft | 414 kts | 304° |
| 2026-05-07 14:34 | 37.24873 | 26.48145 | 32676 ft | 412 kts | 304° |
| 2026-05-07 14:34 | 37.26541 | 26.45202 | 32919 ft | 413 kts | 304° |
| 2026-05-07 14:35 | 37.28211 | 26.42251 | 33209 ft | 413 kts | 304° |
| 2026-05-07 14:35 | 37.29869 | 26.39320 | 33588 ft | 411 kts | 304° |
| 2026-05-07 14:35 | 37.31523 | 26.36394 | 33980 ft | 409 kts | 304° |
| 2026-05-07 14:35 | 37.33166 | 26.33485 | 34291 ft | 408 kts | 304° |
| 2026-05-07 14:36 | 37.34784 | 26.30618 | 34536 ft | 407 kts | 304° |
| 2026-05-07 14:36 | 37.36419 | 26.27718 | 34832 ft | 406 kts | 304° |
| 2026-05-07 14:36 | 37.38044 | 26.24834 | 35189 ft | 401 kts | 304° |
| 2026-05-07 14:36 | 37.39631 | 26.22015 | 35833 ft | 391 kts | 304° |
| 2026-05-07 14:37 | 37.41198 | 26.19228 | 36108 ft | 390 kts | 304° |
| 2026-05-07 14:37 | 37.45957 | 26.10748 | 36141 ft | 398 kts | 304° |
| 2026-05-07 14:38 | 37.49154 | 26.05041 | 36147 ft | 400 kts | 304° |
| 2026-05-07 14:38 | 37.52363 | 25.99302 | 36142 ft | 401 kts | 304° |
| 2026-05-07 14:39 | 37.55583 | 25.93537 | 36138 ft | 401 kts | 304° |
| 2026-05-07 14:39 | 37.59022 | 25.88169 | 36136 ft | 393 kts | 314° |
| 2026-05-07 14:40 | 37.63376 | 25.83966 | 36140 ft | 398 kts | 324° |
| 2026-05-07 14:40 | 37.68130 | 25.80362 | 36133 ft | 399 kts | 325° |
| 2026-05-07 14:41 | 37.72897 | 25.76758 | 36134 ft | 400 kts | 325° |
| 2026-05-07 14:41 | 37.77669 | 25.73121 | 36134 ft | 400 kts | 324° |
| 2026-05-07 14:42 | 37.82437 | 25.69468 | 36131 ft | 401 kts | 324° |
| 2026-05-07 14:42 | 37.87214 | 25.65797 | 36130 ft | 401 kts | 324° |
| 2026-05-07 14:43 | 37.91955 | 25.62147 | 36132 ft | 401 kts | 324° |
| 2026-05-07 14:43 | 37.96717 | 25.58476 | 36118 ft | 400 kts | 324° |
| 2026-05-07 14:44 | 38.01457 | 25.54817 | 36118 ft | 398 kts | 324° |
| 2026-05-07 14:44 | 38.06184 | 25.51161 | 36130 ft | 397 kts | 324° |
| 2026-05-07 14:45 | 38.10910 | 25.47499 | 36128 ft | 399 kts | 324° |
| 2026-05-07 14:45 | 38.15655 | 25.43818 | 36130 ft | 401 kts | 324° |
| 2026-05-07 14:46 | 38.20427 | 25.40109 | 36133 ft | 403 kts | 324° |
| 2026-05-07 14:46 | 38.25227 | 25.36374 | 36125 ft | 406 kts | 324° |
| 2026-05-07 14:47 | 38.30027 | 25.32634 | 36124 ft | 408 kts | 324° |
| 2026-05-07 14:47 | 38.34878 | 25.28847 | 36127 ft | 410 kts | 324° |
| 2026-05-07 14:48 | 38.39753 | 25.25036 | 36121 ft | 412 kts | 324° |
| 2026-05-07 14:48 | 38.44647 | 25.21203 | 36117 ft | 413 kts | 324° |
| 2026-05-07 14:49 | 38.49541 | 25.17366 | 36117 ft | 413 kts | 324° |
| 2026-05-07 14:49 | 38.54429 | 25.13526 | 36125 ft | 412 kts | 324° |
| 2026-05-07 14:50 | 38.59314 | 25.09682 | 36117 ft | 412 kts | 324° |
| 2026-05-07 14:50 | 38.64199 | 25.05832 | 36117 ft | 413 kts | 324° |
| 2026-05-07 14:51 | 38.69106 | 25.01958 | 36116 ft | 414 kts | 324° |
| 2026-05-07 14:51 | 38.74019 | 24.98073 | 36125 ft | 415 kts | 324° |
| 2026-05-07 14:52 | 38.78939 | 24.94176 | 36118 ft | 416 kts | 324° |
| 2026-05-07 14:52 | 38.83872 | 24.90262 | 36119 ft | 417 kts | 324° |
| 2026-05-07 14:53 | 38.88785 | 24.86359 | 36122 ft | 418 kts | 324° |
| 2026-05-07 14:53 | 38.93748 | 24.82408 | 36121 ft | 420 kts | 324° |
| 2026-05-07 14:54 | 38.98727 | 24.78438 | 36120 ft | 421 kts | 324° |
| 2026-05-07 14:54 | 39.03721 | 24.74450 | 36118 ft | 423 kts | 324° |
| 2026-05-07 14:55 | 39.08723 | 24.70448 | 36121 ft | 424 kts | 324° |
| 2026-05-07 14:55 | 39.13708 | 24.66453 | 36128 ft | 426 kts | 324° |
| 2026-05-07 14:56 | 39.18755 | 24.62402 | 36121 ft | 427 kts | 324° |
| 2026-05-07 14:56 | 39.23804 | 24.58341 | 36117 ft | 428 kts | 324° |
| 2026-05-07 14:57 | 39.28865 | 24.54265 | 36118 ft | 429 kts | 324° |
| 2026-05-07 14:57 | 39.33617 | 24.50431 | 36113 ft | 430 kts | 324° |
| 2026-05-07 14:58 | 39.38594 | 24.46333 | 36120 ft | 430 kts | 324° |
| 2026-05-07 14:58 | 39.43585 | 24.42154 | 36118 ft | 430 kts | 324° |
| 2026-05-07 14:59 | 39.48604 | 24.37946 | 36113 ft | 430 kts | 323° |
| 2026-05-07 14:59 | 39.53626 | 24.33737 | 36123 ft | 430 kts | 323° |
| 2026-05-07 15:00 | 39.58646 | 24.29527 | 36126 ft | 430 kts | 324° |
| 2026-05-07 15:00 | 39.62827 | 24.26015 | 36119 ft | 430 kts | 324° |
| 2026-05-07 15:01 | 39.67849 | 24.21791 | 36118 ft | 430 kts | 324° |
| 2026-05-07 15:01 | 39.72878 | 24.17553 | 36112 ft | 430 kts | 324° |
| 2026-05-07 15:02 | 39.77909 | 24.13307 | 36113 ft | 431 kts | 324° |
| 2026-05-07 15:02 | 39.82896 | 24.09089 | 36122 ft | 431 kts | 324° |
| 2026-05-07 15:03 | 39.87927 | 24.04827 | 36114 ft | 432 kts | 323° |
| 2026-05-07 15:03 | 39.92963 | 24.00553 | 36112 ft | 432 kts | 323° |
| 2026-05-07 15:04 | 39.98015 | 23.96259 | 36111 ft | 433 kts | 323° |
| 2026-05-07 15:04 | 40.03058 | 23.91964 | 36113 ft | 433 kts | 323° |
| 2026-05-07 15:05 | 40.08106 | 23.87656 | 36117 ft | 434 kts | 323° |
| 2026-05-07 15:05 | 40.13164 | 23.83333 | 36103 ft | 435 kts | 323° |
| 2026-05-07 15:06 | 40.18227 | 23.78998 | 36109 ft | 435 kts | 323° |
| 2026-05-07 15:06 | 40.23261 | 23.74679 | 36112 ft | 436 kts | 323° |
| 2026-05-07 15:07 | 40.28340 | 23.70314 | 36104 ft | 437 kts | 323° |
| 2026-05-07 15:07 | 40.33415 | 23.65945 | 36104 ft | 437 kts | 323° |
| 2026-05-07 15:08 | 40.38499 | 23.61560 | 36102 ft | 437 kts | 323° |
| 2026-05-07 15:08 | 40.43573 | 23.57175 | 36103 ft | 436 kts | 323° |
| 2026-05-07 15:09 | 40.48641 | 23.52788 | 36106 ft | 436 kts | 323° |
| 2026-05-07 15:09 | 40.53702 | 23.48398 | 36104 ft | 436 kts | 323° |
| 2026-05-07 15:10 | 40.58729 | 23.44030 | 36112 ft | 435 kts | 323° |
| 2026-05-07 15:10 | 40.63777 | 23.39635 | 36110 ft | 435 kts | 323° |
| 2026-05-07 15:11 | 40.68834 | 23.35225 | 36101 ft | 435 kts | 323° |
| 2026-05-07 15:11 | 40.73877 | 23.30818 | 36106 ft | 435 kts | 323° |
| 2026-05-07 15:12 | 40.78928 | 23.26397 | 36100 ft | 436 kts | 322° |
| 2026-05-07 15:12 | 40.83985 | 23.21961 | 36116 ft | 436 kts | 322° |
| 2026-05-07 15:13 | 40.89039 | 23.17521 | 36110 ft | 437 kts | 322° |
| 2026-05-07 15:13 | 40.94110 | 23.13056 | 36103 ft | 438 kts | 322° |
| 2026-05-07 15:14 | 40.99181 | 23.08584 | 36118 ft | 438 kts | 322° |
| 2026-05-07 15:14 | 41.04261 | 23.04094 | 36119 ft | 439 kts | 322° |
| 2026-05-07 15:15 | 41.09328 | 22.99610 | 36112 ft | 440 kts | 322° |
| 2026-05-07 15:15 | 41.14453 | 22.95131 | 36121 ft | 441 kts | 323° |
| 2026-05-07 15:16 | 41.19598 | 22.90684 | 36136 ft | 441 kts | 323° |
| 2026-05-07 15:16 | 41.24743 | 22.86216 | 36114 ft | 442 kts | 323° |
| 2026-05-07 15:17 | 41.29794 | 22.81564 | 36119 ft | 440 kts | 319° |
| 2026-05-07 15:17 | 41.34572 | 22.76505 | 36139 ft | 439 kts | 317° |
| 2026-05-07 15:18 | 41.39317 | 22.71388 | 36130 ft | 438 kts | 317° |
| 2026-05-07 15:18 | 41.44080 | 22.66313 | 36120 ft | 437 kts | 317° |
| 2026-05-07 15:19 | 41.48810 | 22.61310 | 36126 ft | 436 kts | 317° |
| 2026-05-07 15:19 | 41.53563 | 22.56289 | 36121 ft | 435 kts | 317° |
| 2026-05-07 15:20 | 41.58302 | 22.51275 | 36128 ft | 434 kts | 317° |
| 2026-05-07 15:20 | 41.63031 | 22.46259 | 36123 ft | 434 kts | 317° |
| 2026-05-07 15:21 | 41.67754 | 22.41241 | 36126 ft | 433 kts | 317° |
| 2026-05-07 15:21 | 41.72478 | 22.36210 | 36116 ft | 433 kts | 317° |
| 2026-05-07 15:22 | 41.77196 | 22.31177 | 36119 ft | 433 kts | 317° |
| 2026-05-07 15:22 | 41.81904 | 22.26143 | 36122 ft | 433 kts | 317° |
| 2026-05-07 15:23 | 41.86609 | 22.21104 | 36115 ft | 433 kts | 317° |
| 2026-05-07 15:23 | 41.91309 | 22.16061 | 36108 ft | 432 kts | 317° |
| 2026-05-07 15:24 | 41.96004 | 22.11012 | 36124 ft | 432 kts | 317° |
| 2026-05-07 15:24 | 42.00659 | 22.05998 | 36109 ft | 432 kts | 317° |
| 2026-05-07 15:25 | 42.05340 | 22.00946 | 36105 ft | 431 kts | 317° |
| 2026-05-07 15:25 | 42.10011 | 21.95894 | 36106 ft | 431 kts | 317° |
| 2026-05-07 15:26 | 42.14675 | 21.90840 | 36106 ft | 430 kts | 317° |
| 2026-05-07 15:26 | 42.19333 | 21.85783 | 36104 ft | 430 kts | 317° |
| 2026-05-07 15:27 | 42.23988 | 21.80720 | 36106 ft | 430 kts | 317° |
| 2026-05-07 15:27 | 42.28638 | 21.75651 | 36113 ft | 430 kts | 317° |
| 2026-05-07 15:28 | 42.33286 | 21.70575 | 36108 ft | 430 kts | 317° |
| 2026-05-07 15:28 | 42.37933 | 21.65490 | 36104 ft | 429 kts | 317° |
| 2026-05-07 15:29 | 42.42575 | 21.60401 | 36107 ft | 429 kts | 317° |
| 2026-05-07 15:29 | 42.47220 | 21.55298 | 36096 ft | 429 kts | 317° |
| 2026-05-07 15:30 | 42.51856 | 21.50195 | 36103 ft | 429 kts | 317° |
| 2026-05-07 15:30 | 42.56466 | 21.45112 | 36115 ft | 429 kts | 317° |
| 2026-05-07 15:31 | 42.61111 | 21.39978 | 36096 ft | 430 kts | 317° |
| 2026-05-07 15:31 | 42.65758 | 21.34833 | 36096 ft | 431 kts | 317° |
| 2026-05-07 15:32 | 42.70407 | 21.29675 | 36105 ft | 432 kts | 317° |
| 2026-05-07 15:32 | 42.75066 | 21.24495 | 36102 ft | 433 kts | 317° |
| 2026-05-07 15:33 | 42.79733 | 21.19297 | 36095 ft | 434 kts | 317° |
| 2026-05-07 15:33 | 42.84404 | 21.14083 | 36096 ft | 434 kts | 317° |
| 2026-05-07 15:34 | 42.89077 | 21.08856 | 36090 ft | 435 kts | 316° |
| 2026-05-07 15:34 | 42.93755 | 21.03614 | 36079 ft | 435 kts | 316° |
| 2026-05-07 15:35 | 42.98399 | 20.98400 | 36082 ft | 435 kts | 316° |
| 2026-05-07 15:35 | 43.03068 | 20.93147 | 36077 ft | 434 kts | 316° |
| 2026-05-07 15:36 | 43.07733 | 20.87887 | 36069 ft | 434 kts | 316° |
| 2026-05-07 15:36 | 43.12388 | 20.82629 | 36079 ft | 433 kts | 316° |
| 2026-05-07 15:37 | 43.17025 | 20.77379 | 36065 ft | 432 kts | 316° |
| 2026-05-07 15:37 | 43.21658 | 20.72123 | 36061 ft | 432 kts | 316° |
| 2026-05-07 15:38 | 43.26295 | 20.66852 | 36053 ft | 432 kts | 316° |
| 2026-05-07 15:38 | 43.30917 | 20.61587 | 36058 ft | 431 kts | 316° |
| 2026-05-07 15:39 | 43.35529 | 20.56323 | 36055 ft | 431 kts | 316° |
| 2026-05-07 15:39 | 43.40113 | 20.51080 | 36034 ft | 431 kts | 316° |
| 2026-05-07 15:40 | 43.44714 | 20.45807 | 36043 ft | 430 kts | 316° |
| 2026-05-07 15:40 | 43.49313 | 20.40525 | 36040 ft | 430 kts | 316° |
| 2026-05-07 15:41 | 43.53909 | 20.35237 | 36050 ft | 430 kts | 316° |
| 2026-05-07 15:41 | 43.58505 | 20.29937 | 36041 ft | 430 kts | 316° |
| 2026-05-07 15:42 | 43.63098 | 20.24628 | 36031 ft | 430 kts | 316° |
| 2026-05-07 15:42 | 43.67658 | 20.19348 | 36031 ft | 431 kts | 316° |
| 2026-05-07 15:43 | 43.72256 | 20.14014 | 36033 ft | 431 kts | 316° |
| 2026-05-07 15:43 | 43.76851 | 20.08672 | 36024 ft | 431 kts | 315° |
| 2026-05-07 15:44 | 43.81448 | 20.03316 | 36028 ft | 432 kts | 315° |
| 2026-05-07 15:44 | 43.86042 | 19.97952 | 36032 ft | 432 kts | 315° |
| 2026-05-07 15:45 | 43.90634 | 19.92579 | 36034 ft | 432 kts | 315° |
| 2026-05-07 15:45 | 43.95237 | 19.87181 | 36039 ft | 435 kts | 315° |
| 2026-05-07 15:46 | 44.02241 | 19.78943 | 36037 ft | 447 kts | 315° |
| 2026-05-07 15:47 | 44.07013 | 19.73317 | 36035 ft | 452 kts | 315° |
| 2026-05-07 15:47 | 44.11832 | 19.67627 | 36032 ft | 456 kts | 315° |
| 2026-05-07 15:48 | 44.16651 | 19.61926 | 36022 ft | 452 kts | 315° |
| 2026-05-07 15:48 | 44.21406 | 19.56288 | 36017 ft | 445 kts | 315° |
| 2026-05-07 15:49 | 44.25319 | 19.51635 | 36018 ft | 444 kts | 315° |
| 2026-05-07 15:49 | 44.30001 | 19.46055 | 36013 ft | 443 kts | 315° |
| 2026-05-07 15:50 | 44.34730 | 19.40403 | 36059 ft | 450 kts | 315° |
| 2026-05-07 15:50 | 44.39518 | 19.34673 | 36030 ft | 453 kts | 315° |
| 2026-05-07 15:51 | 44.44318 | 19.28919 | 36004 ft | 454 kts | 315° |
| 2026-05-07 15:51 | 44.49102 | 19.23169 | 36017 ft | 453 kts | 315° |
| 2026-05-07 15:52 | 44.53882 | 19.17409 | 36031 ft | 453 kts | 315° |
| 2026-05-07 15:52 | 44.58631 | 19.11675 | 36022 ft | 454 kts | 314° |
| 2026-05-07 15:53 | 44.63218 | 19.05630 | 36021 ft | 451 kts | 310° |
| 2026-05-07 15:53 | 44.67605 | 18.99323 | 36017 ft | 451 kts | 310° |
| 2026-05-07 15:54 | 44.71992 | 18.93003 | 36020 ft | 451 kts | 310° |
| 2026-05-07 15:54 | 44.76401 | 18.86710 | 36015 ft | 451 kts | 310° |
| 2026-05-07 15:55 | 44.80815 | 18.80424 | 36024 ft | 451 kts | 310° |
| 2026-05-07 15:55 | 44.85229 | 18.74126 | 36018 ft | 452 kts | 310° |
| 2026-05-07 15:56 | 44.89648 | 18.67805 | 36013 ft | 453 kts | 310° |
| 2026-05-07 15:56 | 44.94072 | 18.61461 | 36032 ft | 453 kts | 310° |
| 2026-05-07 15:57 | 44.98490 | 18.55110 | 36022 ft | 453 kts | 310° |
| 2026-05-07 15:57 | 45.02883 | 18.48779 | 36015 ft | 453 kts | 310° |
| 2026-05-07 15:58 | 45.07303 | 18.42397 | 36024 ft | 454 kts | 310° |
| 2026-05-07 15:58 | 45.11737 | 18.36021 | 36016 ft | 455 kts | 311° |
| 2026-05-07 15:59 | 45.16339 | 18.29816 | 36020 ft | 457 kts | 312° |
| 2026-05-07 15:59 | 45.20977 | 18.23669 | 36015 ft | 456 kts | 311° |
| 2026-05-07 16:00 | 45.25564 | 18.17531 | 36015 ft | 455 kts | 311° |
| 2026-05-07 16:00 | 45.30153 | 18.11337 | 36017 ft | 455 kts | 311° |
| 2026-05-07 16:01 | 45.34735 | 18.05125 | 36036 ft | 454 kts | 311° |
| 2026-05-07 16:01 | 45.39294 | 17.98929 | 36012 ft | 452 kts | 311° |
| 2026-05-07 16:02 | 45.43832 | 17.92748 | 36006 ft | 451 kts | 311° |
| 2026-05-07 16:02 | 45.48352 | 17.86577 | 36005 ft | 449 kts | 311° |
| 2026-05-07 16:03 | 45.52855 | 17.80415 | 35998 ft | 448 kts | 310° |
| 2026-05-07 16:03 | 45.57343 | 17.74259 | 36021 ft | 447 kts | 310° |
| 2026-05-07 16:04 | 45.61826 | 17.68095 | 36000 ft | 447 kts | 310° |
| 2026-05-07 16:04 | 45.66278 | 17.61959 | 36007 ft | 448 kts | 310° |
| 2026-05-07 16:05 | 45.70764 | 17.55762 | 35998 ft | 448 kts | 310° |
| 2026-05-07 16:05 | 45.75246 | 17.49557 | 36011 ft | 449 kts | 310° |
| 2026-05-07 16:06 | 45.79737 | 17.43325 | 36001 ft | 449 kts | 310° |
| 2026-05-07 16:06 | 45.84223 | 17.37086 | 35994 ft | 449 kts | 310° |
| 2026-05-07 16:07 | 45.88700 | 17.30843 | 35985 ft | 449 kts | 310° |
| 2026-05-07 16:07 | 45.93181 | 17.24580 | 35985 ft | 450 kts | 310° |
| 2026-05-07 16:08 | 45.97664 | 17.18299 | 35993 ft | 451 kts | 309° |
| 2026-05-07 16:08 | 46.02157 | 17.11989 | 35988 ft | 451 kts | 309° |
| 2026-05-07 16:09 | 46.06646 | 17.05671 | 35985 ft | 452 kts | 309° |
| 2026-05-07 16:09 | 46.11108 | 16.99375 | 35988 ft | 452 kts | 309° |
| 2026-05-07 16:10 | 46.15607 | 16.93011 | 36000 ft | 453 kts | 309° |
| 2026-05-07 16:10 | 46.20106 | 16.86631 | 35982 ft | 453 kts | 309° |
| 2026-05-07 16:11 | 46.24604 | 16.80238 | 35969 ft | 454 kts | 309° |
| 2026-05-07 16:11 | 46.29100 | 16.73832 | 35970 ft | 453 kts | 309° |
| 2026-05-07 16:12 | 46.33589 | 16.67421 | 35965 ft | 453 kts | 309° |
| 2026-05-07 16:12 | 46.38074 | 16.60999 | 35976 ft | 454 kts | 309° |
| 2026-05-07 16:13 | 46.42564 | 16.54554 | 35961 ft | 454 kts | 309° |
| 2026-05-07 16:13 | 46.47023 | 16.48139 | 35954 ft | 455 kts | 309° |
| 2026-05-07 16:14 | 46.51509 | 16.41668 | 35946 ft | 455 kts | 309° |
| 2026-05-07 16:14 | 46.55993 | 16.35184 | 35948 ft | 455 kts | 309° |
| 2026-05-07 16:15 | 46.60475 | 16.28687 | 35942 ft | 455 kts | 309° |
| 2026-05-07 16:15 | 46.64948 | 16.22186 | 35959 ft | 455 kts | 309° |
| 2026-05-07 16:16 | 46.69427 | 16.15660 | 35949 ft | 456 kts | 309° |
| 2026-05-07 16:16 | 46.73914 | 16.09106 | 35936 ft | 457 kts | 309° |
| 2026-05-07 16:17 | 46.78406 | 16.02530 | 35932 ft | 458 kts | 309° |
| 2026-05-07 16:17 | 46.83062 | 15.96143 | 35926 ft | 462 kts | 314° |
| 2026-05-07 16:18 | 46.88056 | 15.90204 | 35928 ft | 463 kts | 315° |
| 2026-05-07 16:18 | 46.93084 | 15.84297 | 35925 ft | 464 kts | 315° |
| 2026-05-07 16:19 | 46.98057 | 15.78351 | 35919 ft | 464 kts | 314° |
| 2026-05-07 16:19 | 47.03042 | 15.72321 | 35925 ft | 465 kts | 314° |
| 2026-05-07 16:20 | 47.08023 | 15.66269 | 35920 ft | 465 kts | 314° |
| 2026-05-07 16:20 | 47.13014 | 15.60191 | 35931 ft | 466 kts | 314° |
| 2026-05-07 16:21 | 47.18000 | 15.54106 | 35954 ft | 466 kts | 314° |
| 2026-05-07 16:21 | 47.22990 | 15.48001 | 35962 ft | 467 kts | 314° |
| 2026-05-07 16:22 | 47.27985 | 15.41874 | 35975 ft | 468 kts | 314° |
| 2026-05-07 16:22 | 47.32968 | 15.35748 | 35973 ft | 469 kts | 314° |
| 2026-05-07 16:23 | 47.37978 | 15.29572 | 35980 ft | 469 kts | 314° |
| 2026-05-07 16:23 | 47.42981 | 15.23391 | 36002 ft | 469 kts | 314° |
| 2026-05-07 16:24 | 47.47992 | 15.17180 | 36019 ft | 471 kts | 314° |
| 2026-05-07 16:24 | 47.53017 | 15.10937 | 35991 ft | 471 kts | 315° |
| 2026-05-07 16:25 | 47.58028 | 15.04696 | 35995 ft | 471 kts | 315° |
| 2026-05-07 16:25 | 47.63032 | 14.98447 | 36006 ft | 470 kts | 315° |
| 2026-05-07 16:26 | 47.68025 | 14.92175 | 36013 ft | 469 kts | 314° |
| 2026-05-07 16:26 | 47.72848 | 14.85764 | 36027 ft | 468 kts | 313° |
| 2026-05-07 16:27 | 47.77649 | 14.79237 | 36013 ft | 467 kts | 313° |
| 2026-05-07 16:27 | 47.82455 | 14.72717 | 35993 ft | 466 kts | 313° |
| 2026-05-07 16:28 | 47.87249 | 14.66228 | 36008 ft | 466 kts | 313° |
| 2026-05-07 16:28 | 47.92059 | 14.59712 | 36000 ft | 466 kts | 313° |
| 2026-05-07 16:29 | 47.96853 | 14.53202 | 36012 ft | 466 kts | 313° |
| 2026-05-07 16:29 | 48.01638 | 14.46686 | 36006 ft | 466 kts | 313° |
| 2026-05-07 16:30 | 48.06388 | 14.40201 | 36012 ft | 465 kts | 313° |
| 2026-05-07 16:30 | 48.11159 | 14.33668 | 36014 ft | 465 kts | 313° |
| 2026-05-07 16:31 | 48.15926 | 14.27123 | 36030 ft | 465 kts | 313° |
| 2026-05-07 16:31 | 48.20685 | 14.20573 | 36033 ft | 465 kts | 314° |
| 2026-05-07 16:32 | 48.25442 | 14.14008 | 36024 ft | 464 kts | 313° |
| 2026-05-07 16:32 | 48.30191 | 14.07438 | 36018 ft | 464 kts | 313° |
| 2026-05-07 16:33 | 48.34925 | 14.00870 | 36005 ft | 463 kts | 313° |
| 2026-05-07 16:33 | 48.39658 | 13.94287 | 36004 ft | 463 kts | 313° |
| 2026-05-07 16:34 | 48.44354 | 13.87736 | 36010 ft | 463 kts | 314° |
| 2026-05-07 16:34 | 48.49072 | 13.81138 | 36011 ft | 463 kts | 314° |
| 2026-05-07 16:35 | 48.53792 | 13.74519 | 36006 ft | 463 kts | 314° |
| 2026-05-07 16:35 | 48.58507 | 13.67888 | 36007 ft | 463 kts | 313° |
| 2026-05-07 16:36 | 48.63217 | 13.61248 | 36009 ft | 463 kts | 313° |
| 2026-05-07 16:36 | 48.67956 | 13.54658 | 36018 ft | 463 kts | 315° |
| 2026-05-07 16:37 | 48.72829 | 13.48273 | 36005 ft | 463 kts | 316° |
| 2026-05-07 16:37 | 48.76897 | 13.42980 | 36009 ft | 463 kts | 316° |
| 2026-05-07 16:38 | 48.82556 | 13.35541 | 36015 ft | 463 kts | 316° |
| 2026-05-07 16:38 | 48.86619 | 13.30155 | 36018 ft | 462 kts | 315° |
| 2026-05-07 16:39 | 48.91591 | 13.24016 | 36017 ft | 467 kts | 326° |
| 2026-05-07 16:39 | 48.97311 | 13.19301 | 36024 ft | 468 kts | 329° |
| 2026-05-07 16:40 | 49.03083 | 13.14719 | 36019 ft | 468 kts | 329° |
| 2026-05-07 16:40 | 49.08838 | 13.10064 | 36022 ft | 468 kts | 329° |
| 2026-05-07 16:41 | 49.14583 | 13.05341 | 36022 ft | 469 kts | 328° |
| 2026-05-07 16:41 | 49.20323 | 13.00586 | 36021 ft | 469 kts | 328° |
| 2026-05-07 16:42 | 49.26017 | 12.95857 | 36022 ft | 469 kts | 329° |
| 2026-05-07 16:42 | 49.31758 | 12.91078 | 36022 ft | 469 kts | 329° |
| 2026-05-07 16:43 | 49.37492 | 12.86294 | 36021 ft | 469 kts | 328° |
| 2026-05-07 16:43 | 49.43222 | 12.81501 | 36018 ft | 469 kts | 328° |
| 2026-05-07 16:44 | 49.48946 | 12.76701 | 36030 ft | 468 kts | 328° |
| 2026-05-07 16:44 | 49.54671 | 12.71885 | 36019 ft | 469 kts | 329° |
| 2026-05-07 16:45 | 49.60405 | 12.67049 | 36028 ft | 470 kts | 329° |
| 2026-05-07 16:45 | 49.66143 | 12.62197 | 36020 ft | 470 kts | 329° |
| 2026-05-07 16:46 | 49.71876 | 12.57337 | 36021 ft | 470 kts | 329° |
| 2026-05-07 16:46 | 49.77571 | 12.52495 | 36020 ft | 470 kts | 329° |
| 2026-05-07 16:47 | 49.83305 | 12.47607 | 36022 ft | 470 kts | 329° |
| 2026-05-07 16:47 | 49.89040 | 12.42704 | 36028 ft | 470 kts | 329° |
| 2026-05-07 16:48 | 49.94762 | 12.37800 | 36024 ft | 470 kts | 329° |
| 2026-05-07 16:48 | 50.00490 | 12.32877 | 36028 ft | 470 kts | 329° |
| 2026-05-07 16:49 | 50.06128 | 12.28017 | 36021 ft | 469 kts | 329° |
| 2026-05-07 16:49 | 50.11635 | 12.23258 | 36027 ft | 469 kts | 329° |
| 2026-05-07 16:50 | 50.17337 | 12.18318 | 36025 ft | 469 kts | 329° |
| 2026-05-07 16:50 | 50.23034 | 12.13367 | 36026 ft | 468 kts | 329° |
| 2026-05-07 16:51 | 50.28728 | 12.08406 | 36026 ft | 469 kts | 329° |
| 2026-05-07 16:51 | 50.34431 | 12.03423 | 36031 ft | 468 kts | 329° |
| 2026-05-07 16:52 | 50.40111 | 11.98447 | 36019 ft | 468 kts | 329° |
| 2026-05-07 16:52 | 50.45788 | 11.93459 | 36027 ft | 467 kts | 329° |
| 2026-05-07 16:53 | 50.51458 | 11.88464 | 36032 ft | 467 kts | 329° |
| 2026-05-07 16:53 | 50.57084 | 11.83494 | 36035 ft | 467 kts | 329° |
| 2026-05-07 16:54 | 50.62744 | 11.78480 | 36046 ft | 466 kts | 329° |
| 2026-05-07 16:54 | 50.68417 | 11.73440 | 36055 ft | 466 kts | 329° |
| 2026-05-07 16:55 | 50.73971 | 11.68496 | 35728 ft | 450 kts | 329° |
| 2026-05-07 16:55 | 50.76688 | 11.66073 | 35324 ft | 446 kts | 329° |
| 2026-05-07 16:55 | 50.79372 | 11.63674 | 34898 ft | 442 kts | 329° |
| 2026-05-07 16:55 | 50.82041 | 11.61285 | 34480 ft | 439 kts | 329° |
| 2026-05-07 16:56 | 50.84686 | 11.58914 | 34065 ft | 435 kts | 329° |
| 2026-05-07 16:56 | 50.87316 | 11.56553 | 33575 ft | 432 kts | 329° |
| 2026-05-07 16:56 | 50.92467 | 11.51921 | 32617 ft | 425 kts | 330° |
| 2026-05-07 16:57 | 50.95026 | 11.49615 | 32147 ft | 422 kts | 330° |
| 2026-05-07 16:57 | 50.97568 | 11.47322 | 31687 ft | 419 kts | 330° |
| 2026-05-07 16:57 | 51.00086 | 11.45047 | 31220 ft | 415 kts | 330° |
| 2026-05-07 16:57 | 51.02591 | 11.42782 | 30771 ft | 412 kts | 330° |
| 2026-05-07 16:58 | 51.05075 | 11.40532 | 30320 ft | 409 kts | 330° |
| 2026-05-07 16:58 | 51.07541 | 11.38297 | 29831 ft | 406 kts | 330° |
| 2026-05-07 16:58 | 51.09985 | 11.36079 | 29313 ft | 403 kts | 330° |
| 2026-05-07 16:58 | 51.12413 | 11.33873 | 28807 ft | 400 kts | 330° |
| 2026-05-07 16:59 | 51.14821 | 11.31681 | 28307 ft | 397 kts | 330° |
| 2026-05-07 16:59 | 51.17214 | 11.29502 | 27814 ft | 394 kts | 330° |
| 2026-05-07 16:59 | 51.19583 | 11.27341 | 27337 ft | 391 kts | 330° |
| 2026-05-07 16:59 | 51.21936 | 11.25192 | 26863 ft | 388 kts | 330° |
| 2026-05-07 17:00 | 51.24274 | 11.23055 | 26399 ft | 386 kts | 330° |
| 2026-05-07 17:00 | 51.26596 | 11.20929 | 25942 ft | 383 kts | 330° |
| 2026-05-07 17:00 | 51.28892 | 11.18825 | 25446 ft | 378 kts | 330° |
| 2026-05-07 17:00 | 51.31159 | 11.16745 | 24951 ft | 373 kts | 330° |
| 2026-05-07 17:01 | 51.33399 | 11.14687 | 24464 ft | 369 kts | 330° |
| 2026-05-07 17:01 | 51.35613 | 11.12652 | 23985 ft | 365 kts | 330° |
| 2026-05-07 17:01 | 51.37773 | 11.10662 | 23504 ft | 361 kts | 330° |
| 2026-05-07 17:01 | 51.39941 | 11.08665 | 22954 ft | 358 kts | 330° |
| 2026-05-07 17:02 | 51.42087 | 11.06685 | 22406 ft | 354 kts | 329° |
| 2026-05-07 17:02 | 51.44214 | 11.04720 | 21869 ft | 351 kts | 329° |
| 2026-05-07 17:02 | 51.46325 | 11.02768 | 21343 ft | 349 kts | 329° |
| 2026-05-07 17:02 | 51.48419 | 11.00830 | 20831 ft | 346 kts | 329° |
| 2026-05-07 17:03 | 51.50498 | 10.98903 | 20329 ft | 343 kts | 329° |
| 2026-05-07 17:03 | 51.52561 | 10.96990 | 19831 ft | 341 kts | 329° |
| 2026-05-07 17:03 | 51.54608 | 10.95090 | 19351 ft | 339 kts | 329° |
| 2026-05-07 17:03 | 51.56639 | 10.93201 | 18863 ft | 337 kts | 329° |
| 2026-05-07 17:04 | 51.58664 | 10.91316 | 18381 ft | 335 kts | 329° |
| 2026-05-07 17:04 | 51.60676 | 10.89442 | 17862 ft | 335 kts | 329° |
| 2026-05-07 17:04 | 51.62686 | 10.87567 | 17321 ft | 333 kts | 329° |
| 2026-05-07 17:04 | 51.64685 | 10.85701 | 16794 ft | 331 kts | 329° |
| 2026-05-07 17:05 | 51.66666 | 10.83850 | 16268 ft | 329 kts | 329° |
| 2026-05-07 17:05 | 51.68639 | 10.82005 | 15769 ft | 327 kts | 329° |
| 2026-05-07 17:05 | 51.70601 | 10.80167 | 15273 ft | 325 kts | 329° |
| 2026-05-07 17:05 | 51.72552 | 10.78338 | 14778 ft | 323 kts | 329° |
| 2026-05-07 17:06 | 51.74492 | 10.76518 | 14296 ft | 322 kts | 329° |
| 2026-05-07 17:06 | 51.76421 | 10.74706 | 13808 ft | 320 kts | 329° |
| 2026-05-07 17:06 | 51.78340 | 10.72901 | 13276 ft | 318 kts | 330° |
| 2026-05-07 17:06 | 51.80247 | 10.71106 | 12754 ft | 316 kts | 330° |
| 2026-05-07 17:07 | 51.82146 | 10.69317 | 12234 ft | 314 kts | 330° |
| 2026-05-07 17:07 | 51.84031 | 10.67540 | 11720 ft | 313 kts | 330° |
| 2026-05-07 17:07 | 51.85905 | 10.65771 | 11215 ft | 311 kts | 330° |
| 2026-05-07 17:07 | 51.87767 | 10.64010 | 10726 ft | 310 kts | 330° |
| 2026-05-07 17:08 | 51.89620 | 10.62257 | 10316 ft | 306 kts | 330° |
| 2026-05-07 17:08 | 51.91433 | 10.60538 | 10023 ft | 298 kts | 330° |
| 2026-05-07 17:08 | 51.93183 | 10.58880 | 9943 ft | 285 kts | 330° |
| 2026-05-07 17:08 | 51.94857 | 10.57292 | 9944 ft | 281 kts | 330° |
| 2026-05-07 17:09 | 51.96558 | 10.55678 | 9950 ft | 285 kts | 330° |
| 2026-05-07 17:09 | 51.98276 | 10.54047 | 9947 ft | 286 kts | 330° |
| 2026-05-07 17:09 | 51.99804 | 10.52041 | 9912 ft | 285 kts | 306° |
| 2026-05-07 17:09 | 52.00742 | 10.49227 | 9944 ft | 283 kts | 295° |
| 2026-05-07 17:10 | 52.01539 | 10.46301 | 9946 ft | 283 kts | 294° |
| 2026-05-07 17:10 | 52.02312 | 10.43355 | 9948 ft | 284 kts | 294° |
| 2026-05-07 17:10 | 52.03083 | 10.40403 | 9950 ft | 285 kts | 294° |
| 2026-05-07 17:10 | 52.03860 | 10.37432 | 9955 ft | 286 kts | 294° |
| 2026-05-07 17:11 | 52.04641 | 10.34453 | 9952 ft | 287 kts | 294° |
| 2026-05-07 17:11 | 52.05426 | 10.31468 | 9948 ft | 287 kts | 293° |
| 2026-05-07 17:11 | 52.06214 | 10.28471 | 9945 ft | 289 kts | 294° |
| 2026-05-07 17:11 | 52.07006 | 10.25465 | 9949 ft | 289 kts | 294° |
| 2026-05-07 17:12 | 52.07792 | 10.22477 | 9944 ft | 285 kts | 294° |
| 2026-05-07 17:12 | 52.08567 | 10.19533 | 9955 ft | 284 kts | 294° |
| 2026-05-07 17:12 | 52.09348 | 10.16563 | 9966 ft | 287 kts | 294° |
| 2026-05-07 17:12 | 52.10135 | 10.13567 | 9956 ft | 289 kts | 294° |
| 2026-05-07 17:13 | 52.10926 | 10.10553 | 9956 ft | 289 kts | 294° |
| 2026-05-07 17:13 | 52.11716 | 10.07540 | 9956 ft | 289 kts | 294° |
| 2026-05-07 17:13 | 52.12504 | 10.04528 | 9957 ft | 289 kts | 294° |
| 2026-05-07 17:13 | 52.13291 | 10.01518 | 9956 ft | 288 kts | 294° |
| 2026-05-07 17:14 | 52.14075 | 9.98517 | 9961 ft | 288 kts | 293° |
| 2026-05-07 17:14 | 52.14846 | 9.95559 | 9959 ft | 287 kts | 293° |
| 2026-05-07 17:14 | 52.15624 | 9.92574 | 9963 ft | 286 kts | 293° |
| 2026-05-07 17:14 | 52.16402 | 9.89584 | 9965 ft | 286 kts | 294° |
| 2026-05-07 17:15 | 52.17175 | 9.86605 | 9963 ft | 286 kts | 293° |
| 2026-05-07 17:15 | 52.17950 | 9.83621 | 9966 ft | 285 kts | 293° |
| 2026-05-07 17:15 | 52.18722 | 9.80639 | 9832 ft | 288 kts | 293° |
| 2026-05-07 17:15 | 52.19508 | 9.77603 | 9508 ft | 291 kts | 293° |
| 2026-05-07 17:16 | 52.20291 | 9.74576 | 9154 ft | 288 kts | 293° |
| 2026-05-07 17:16 | 52.21061 | 9.71590 | 8805 ft | 283 kts | 293° |
| 2026-05-07 17:16 | 52.21818 | 9.68653 | 8474 ft | 279 kts | 293° |
| 2026-05-07 17:16 | 52.22567 | 9.65743 | 8148 ft | 278 kts | 294° |
| 2026-05-07 17:17 | 52.23313 | 9.62841 | 7831 ft | 277 kts | 294° |
| 2026-05-07 17:17 | 52.24042 | 9.59999 | 7515 ft | 279 kts | 294° |
| 2026-05-07 17:17 | 52.24790 | 9.57081 | 7192 ft | 279 kts | 294° |
| 2026-05-07 17:17 | 52.25538 | 9.54159 | 6847 ft | 279 kts | 294° |
| 2026-05-07 17:18 | 52.26284 | 9.51242 | 6521 ft | 277 kts | 294° |
| 2026-05-07 17:18 | 52.27026 | 9.48340 | 6184 ft | 276 kts | 294° |
| 2026-05-07 17:18 | 52.27977 | 9.45664 | 5815 ft | 272 kts | 315° |
| 2026-05-07 17:18 | 52.29471 | 9.43874 | 5507 ft | 264 kts | 332° |
| 2026-05-07 17:19 | 52.31070 | 9.42421 | 5169 ft | 261 kts | 333° |
| 2026-05-07 17:19 | 52.32654 | 9.41014 | 4999 ft | 256 kts | 334° |
| 2026-05-07 17:19 | 52.34205 | 9.39649 | 4965 ft | 251 kts | 334° |
| 2026-05-07 17:19 | 52.35728 | 9.38303 | 4953 ft | 246 kts | 334° |
| 2026-05-07 17:20 | 52.37229 | 9.36974 | 4958 ft | 244 kts | 334° |
| 2026-05-07 17:20 | 52.38698 | 9.35671 | 4950 ft | 243 kts | 334° |
| 2026-05-07 17:20 | 52.40177 | 9.34354 | 4910 ft | 243 kts | 334° |
| 2026-05-07 17:20 | 52.41691 | 9.32975 | 4584 ft | 256 kts | 334° |
| 2026-05-07 17:21 | 52.43272 | 9.31523 | 4268 ft | 263 kts | 334° |
| 2026-05-07 17:21 | 52.44934 | 9.30307 | 3885 ft | 261 kts | 353° |
| 2026-05-07 17:21 | 52.46684 | 9.30676 | 3511 ft | 255 kts | 30° |
| 2026-05-07 17:21 | 52.47899 | 9.32692 | 3155 ft | 251 kts | 66° |
| 2026-05-07 17:22 | 52.48073 | 9.35479 | 2990 ft | 248 kts | 103° |
| 2026-05-07 17:22 | 52.47321 | 9.37962 | 2987 ft | 241 kts | 116° |
| 2026-05-07 17:22 | 52.46710 | 9.40453 | 2977 ft | 231 kts | 105° |
| 2026-05-07 17:22 | 52.46359 | 9.42976 | 2968 ft | 223 kts | 98° |
| 2026-05-07 17:23 | 52.46147 | 9.45476 | 2876 ft | 221 kts | 94° |
| 2026-05-07 17:23 | 52.46050 | 9.48045 | 2610 ft | 227 kts | 91° |
| 2026-05-07 17:23 | 52.46010 | 9.49758 | 2412 ft | 227 kts | 92° |
| 2026-05-07 17:23 | 52.45940 | 9.52329 | 2090 ft | 222 kts | 92° |
| 2026-05-07 17:24 | 52.45868 | 9.54752 | 1785 ft | 205 kts | 93° |
| 2026-05-07 17:24 | 52.45804 | 9.57061 | 1110 ft | 205 kts | 92° |
| 2026-05-07 17:24 | 52.45765 | 9.59221 | 1056 ft | 173 kts | 93° |
| 2026-05-07 17:24 | 52.45698 | 9.61071 | 901 ft | 153 kts | 92° |
| 2026-05-07 17:25 | 52.45694 | 9.62737 | 662 ft | 140 kts | 89° |
| 2026-05-07 17:25 | 52.45626 | 9.64265 | 510 ft | 134 kts | 99° |
| 2026-05-07 17:25 | 52.45509 | 9.65833 | 394 ft | 144 kts | 96° |
| 2026-05-07 17:25 | 52.45468 | 9.67495 | 265 ft | 144 kts | 88° |
| 2026-05-07 17:26 | 52.45462 | 9.69045 | 187 ft | 122 kts | 92° |
| 2026-05-07 17:26 | 52.45431 | 9.70045 | 187 ft | 40 kts | 92° |
| 2026-05-07 17:26 | 52.45419 | 9.70407 | 186 ft | 23 kts | 94° |
| 2026-05-07 17:26 | 52.45417 | 9.70589 | 191 ft | 10 kts | 83° |
| 2026-05-07 17:27 | 52.45450 | 9.70660 | 198 ft | 10 kts | 22° |
| 2026-05-07 17:27 | 52.45529 | 9.70673 | 190 ft | 11 kts | 2° |
| 2026-05-07 17:27 | 52.45615 | 9.70666 | 198 ft | 11 kts | 338° |
| 2026-05-07 17:27 | 52.45651 | 9.70571 | 192 ft | 10 kts | 277° |
| 2026-05-07 17:28 | 52.45654 | 9.70457 | 190 ft | 10 kts | 269° |
| 2026-05-07 17:28 | 52.45656 | 9.70347 | 190 ft | 10 kts | 272° |
| 2026-05-07 17:28 | 52.45678 | 9.70251 | 193 ft | 9 kts | 318° |
| 2026-05-07 17:28 | 52.45724 | 9.70204 | 192 ft | 6 kts | 319° |
| 2026-05-07 17:29 | 52.45751 | 9.70154 | 190 ft | 4 kts | 308° |
| 2026-05-07 17:29 | 52.45762 | 9.70130 | 196 ft | 0 kts | 307° |